León Aeropuerto

latitud = 42° 35' 58''N | longitud = 005° 38' 37''W
912 metros sobre el nivel del mar | datos mensuales

Fecha, hora, temperatura, viento dirección y velocidad, humedad y presión.

  • 05-09-2017 14:00:00 | 26.40°C | Sudoeste |11.00 km/h | 29.00% | 918.20 hPa
  • 05-09-2017 14:00:00 | 26.40°C | Sudoeste |11.00 km/h | 29.00% | 918.20 hPa
  • 05-09-2017 14:00:00 | 26.40°C | Sudoeste |11.00 km/h | 29.00% | 918.20 hPa
  • 05-09-2017 14:00:00 | 26.40°C | Sudoeste |11.00 km/h | 29.00% | 918.20 hPa
  • 05-09-2017 14:00:00 | 26.40°C | Sudoeste |11.00 km/h | 29.00% | 918.20 hPa
  • 05-09-2017 13:00:00 | 25.00°C | Sur |10.00 km/h | 39.00% | 918.50 hPa
  • 05-09-2017 12:00:00 | 23.20°C | Este |5.00 km/h | 47.00% | 918.70 hPa
  • 05-09-2017 11:00:00 | 20.70°C | Este |2.00 km/h | 57.00% | 918.40 hPa
  • 05-09-2017 10:00:00 | 18.50°C | Nordeste |5.00 km/h | 63.00% | 918.00 hPa
  • 05-09-2017 09:00:00 | 15.30°C | Norte |7.00 km/h | 76.00% | 917.80 hPa
  • 05-09-2017 08:00:00 | 12.90°C | Noroeste |5.00 km/h | 82.00% | 917.50 hPa
  • 05-09-2017 07:00:00 | 13.00°C | Norte |4.00 km/h | 81.00% | 917.00 hPa
  • 05-09-2017 06:00:00 | 13.70°C | Norte |3.00 km/h | 79.00% | 917.20 hPa
  • 05-09-2017 05:00:00 | 14.40°C | Noroeste |6.00 km/h | 77.00% | 917.40 hPa
  • 05-09-2017 04:00:00 | 14.60°C | Norte |5.00 km/h | 76.00% | 917.00 hPa
  • 05-09-2017 03:00:00 | 14.70°C | Norte |4.00 km/h | 76.00% | 917.10 hPa
  • 05-09-2017 02:00:00 | 16.10°C | Nordeste |7.00 km/h | 72.00% | 917.00 hPa
  • 05-09-2017 01:00:00 | 16.60°C | Norte |6.00 km/h | 70.00% | 916.60 hPa
  • 05-09-2017 00:00:00 | 18.20°C | Noroeste |2.00 km/h | 64.00% | 916.30 hPa
  • 04-09-2017 23:00:00 | 19.50°C | Oeste |6.00 km/h | 56.00% | 916.00 hPa
  • 04-09-2017 22:00:00 | 21.30°C | Oeste |3.00 km/h | 47.00% | 915.40 hPa
  • 04-09-2017 21:00:00 | 23.80°C | Sudeste |5.00 km/h | 40.00% | 914.80 hPa
  • 04-09-2017 20:00:00 | 25.30°C | Sudeste |10.00 km/h | 37.00% | 914.40 hPa
  • 04-09-2017 19:00:00 | 26.00°C | Sur |15.00 km/h | 36.00% | 914.30 hPa